Time;durP1;ratioP1;P1;durP2;ratioP2;P2;SDS_P1;SDS_P2;PMS_P1;PMS_P2;Temp;Humidity;BMP_temperature;BMP_pressure;BME280_temperature;BME280_humidity;BME280_pressure;Samples;Min_cycle;Max_cycle;Signal;HPM_P1;HPM_P2
2022/04/14 00:01:30;;;;;;;34.78;19.42;;;10.60;56.40;;;;;;5034421;28;20017;-58
2022/04/14 00:03:55;;;;;;;35.28;19.92;;;10.50;55.40;;;;;;5034413;28;20469;-59
2022/04/14 00:06:21;;;;;;;38.58;22.02;;;10.40;54.90;;;;;;5034276;28;20030;-58
2022/04/14 00:08:47;;;;;;;31.73;18.23;;;10.30;55.80;;;;;;5033690;28;20083;-57
2022/04/14 00:11:13;;;;;;;28.17;16.98;;;10.20;57.00;;;;;;5034613;28;20095;-59
2022/04/14 00:13:39;;;;;;;33.85;18.92;;;10.20;56.40;;;;;;5034746;28;20021;-59
2022/04/14 00:16:05;;;;;;;32.40;19.13;;;10.20;57.60;;;;;;5033889;28;20040;-59
2022/04/14 00:18:30;;;;;;;27.80;16.50;;;10.20;57.40;;;;;;5034254;28;20395;-57
2022/04/14 00:20:56;;;;;;;27.33;16.00;;;10.30;56.70;;;;;;5034110;28;20033;-59
2022/04/14 00:23:22;;;;;;;24.90;14.90;;;10.30;56.60;;;;;;5033892;28;20053;-58
2022/04/14 00:25:48;;;;;;;31.83;17.73;;;10.20;55.90;;;;;;5034424;28;20021;-58
2022/04/14 00:28:13;;;;;;;25.27;14.80;;;10.20;56.50;;;;;;5034236;28;20025;-59
2022/04/14 00:30:39;;;;;;;25.05;15.05;;;10.10;56.50;;;;;;5034094;28;20053;-58
2022/04/14 00:33:05;;;;;;;21.00;13.05;;;10.10;57.20;;;;;;5033887;28;20079;-59
2022/04/14 00:35:31;;;;;;;22.42;13.25;;;10.10;58.10;;;;;;5033904;28;20052;-59
2022/04/14 00:37:57;;;;;;;18.98;11.15;;;10.10;57.00;;;;;;5033707;28;20026;-58
2022/04/14 00:40:22;;;;;;;17.60;11.38;;;10.10;57.60;;;;;;5033587;28;20018;-58
2022/04/14 00:42:48;;;;;;;19.55;11.82;;;10.00;56.00;;;;;;5033822;28;20104;-58
2022/04/14 00:45:14;;;;;;;18.23;11.68;;;10.00;56.30;;;;;;5033958;28;20472;-58
2022/04/14 00:47:40;;;;;;;22.40;13.18;;;10.00;56.00;;;;;;5033668;28;20013;-58
2022/04/14 00:50:07;;;;;;;18.88;11.90;;;10.00;56.00;;;;;;5034346;28;20021;-55
2022/04/14 00:52:32;;;;;;;22.90;12.82;;;9.90;58.10;;;;;;5033504;28;20034;-59
2022/04/14 00:54:58;;;;;;;18.38;11.23;;;9.90;57.60;;;;;;5033479;28;20033;-60
2022/04/14 00:57:24;;;;;;;17.15;10.80;;;9.90;58.30;;;;;;5033722;28;20498;-59
2022/04/14 00:59:50;;;;;;;18.67;11.30;;;9.80;59.10;;;;;;5033649;28;20028;-56
2022/04/14 01:02:15;;;;;;;19.10;10.88;;;9.80;58.20;;;;;;5033490;28;20376;-58
2022/04/14 01:04:41;;;;;;;16.35;10.68;;;9.80;59.00;;;;;;5033378;28;20105;-58
2022/04/14 01:07:08;;;;;;;17.33;10.45;;;9.70;57.90;;;;;;5033289;28;20029;-57
2022/04/14 01:09:36;;;;;;;18.52;10.93;;;9.70;56.70;;;;;;5033400;28;20476;-59
2022/04/14 01:12:06;;;;;;;21.65;13.70;;;9.70;56.70;;;;;;5033297;28;20037;-59
2022/04/14 01:14:36;;;;;;;21.17;12.52;;;9.60;56.70;;;;;;5033270;28;20403;-58
2022/04/14 01:17:04;;;;;;;18.10;11.70;;;9.40;57.40;;;;;;5033553;28;20116;-58
2022/04/14 01:19:30;;;;;;;31.05;15.60;;;9.30;58.90;;;;;;5033254;28;20431;-59
2022/04/14 01:22:15;;;;;;;28.25;16.50;;;9.30;60.10;;;;;;5033164;28;20052;-59
2022/04/14 01:24:42;;;;;;;27.63;15.43;;;9.20;62.40;;;;;;5033148;28;20049;-59
2022/04/14 01:27:08;;;;;;;26.58;14.35;;;9.00;62.90;;;;;;5033483;28;20052;-59
2022/04/14 01:29:34;;;;;;;23.73;12.20;;;9.00;63.50;;;;;;5033469;28;20026;-58
2022/04/14 01:32:02;;;;;;;22.52;12.25;;;9.00;65.00;;;;;;5033158;28;20095;-59
2022/04/14 01:34:30;;;;;;;24.25;14.18;;;9.00;60.80;;;;;;5033261;28;20487;-59
2022/04/14 01:37:00;;;;;;;24.90;14.00;;;9.00;61.30;;;;;;5033182;28;20026;-58
2022/04/14 01:39:26;;;;;;;21.77;12.32;;;8.90;61.50;;;;;;5033058;28;20029;-58
2022/04/14 01:41:52;;;;;;;23.10;12.52;;;8.80;62.70;;;;;;5033162;28;20072;-57
2022/04/14 01:44:18;;;;;;;21.38;12.20;;;8.90;63.10;;;;;;5033303;28;20045;-57
2022/04/14 01:46:44;;;;;;;20.15;11.40;;;8.90;61.60;;;;;;5032948;28;20152;-59
2022/04/14 01:49:09;;;;;;;20.67;11.80;;;8.90;61.50;;;;;;5032857;28;20029;-58
2022/04/14 01:51:36;;;;;;;22.55;13.10;;;8.90;61.50;;;;;;5032888;28;20033;-56
2022/04/14 01:54:03;;;;;;;23.35;12.68;;;8.90;61.80;;;;;;5033196;28;20029;-59
2022/04/14 01:56:28;;;;;;;17.88;11.40;;;8.70;62.30;;;;;;5033169;28;20022;-58
2022/04/14 01:58:54;;;;;;;19.90;11.18;;;8.70;63.90;;;;;;5033182;28;20126;-58
2022/04/14 02:01:20;;;;;;;17.33;10.30;;;8.70;64.60;;;;;;5032750;28;20025;-57
2022/04/14 02:03:47;;;;;;;17.13;10.60;;;8.70;62.90;;;;;;5032811;28;20029;-59
2022/04/14 02:06:13;;;;;;;15.85;9.65;;;8.70;63.20;;;;;;5033111;28;20117;-56
2022/04/14 02:08:39;;;;;;;17.00;10.30;;;8.70;62.50;;;;;;5032710;28;20492;-59
2022/04/14 02:11:05;;;;;;;14.70;9.07;;;8.70;62.30;;;;;;5032885;28;20025;-58
2022/04/14 02:13:31;;;;;;;14.35;9.23;;;8.70;61.60;;;;;;5032812;28;20435;-59
2022/04/14 02:15:57;;;;;;;14.25;8.38;;;8.70;60.80;;;;;;5032597;28;20514;-59
2022/04/14 02:18:23;;;;;;;12.65;8.38;;;8.70;61.40;;;;;;5032771;28;20025;-59
2022/04/14 02:20:49;;;;;;;13.98;9.23;;;8.70;60.80;;;;;;5032601;28;20060;-59
2022/04/14 02:23:15;;;;;;;19.33;12.68;;;8.60;60.80;;;;;;5032642;28;20056;-59
2022/04/14 02:25:41;;;;;;;23.33;13.00;;;8.50;61.60;;;;;;5032856;28;20029;-57
2022/04/14 02:28:07;;;;;;;25.77;14.07;;;8.20;65.20;;;;;;5032797;28;20384;-58
2022/04/14 02:30:35;;;;;;;18.80;10.80;;;8.10;66.80;;;;;;5034049;28;20116;-59
2022/04/14 02:33:02;;;;;;;24.88;12.93;;;8.10;68.30;;;;;;5036033;28;20100;-58
2022/04/14 02:35:28;;;;;;;20.92;11.38;;;8.20;67.20;;;;;;5036496;28;20090;-59
2022/04/14 02:37:56;;;;;;;20.85;11.68;;;8.20;67.40;;;;;;5036159;28;20472;-58
2022/04/14 02:40:25;;;;;;;24.00;14.18;;;8.30;65.80;;;;;;5036025;28;20167;-57
2022/04/14 02:42:53;;;;;;;23.65;13.27;;;8.20;65.90;;;;;;5036105;28;20045;-57
2022/04/14 02:45:22;;;;;;;22.45;12.45;;;8.00;68.20;;;;;;5036275;28;20034;-58
2022/04/14 02:47:48;;;;;;;21.67;11.90;;;7.90;70.10;;;;;;5035660;28;20021;-58
2022/04/14 02:50:14;;;;;;;24.20;13.73;;;8.00;70.40;;;;;;5035820;28;20032;-58
2022/04/14 02:52:40;;;;;;;22.95;12.30;;;8.00;69.80;;;;;;5035834;28;20025;-59
2022/04/14 02:55:07;;;;;;;18.38;10.68;;;7.90;69.30;;;;;;5035708;28;20073;-58
2022/04/14 02:57:32;;;;;;;22.35;10.82;;;8.00;69.40;;;;;;5035656;28;20033;-57
2022/04/14 02:59:58;;;;;;;18.30;11.07;;;8.00;68.70;;;;;;5035831;28;20021;-59
2022/04/14 03:02:24;;;;;;;17.20;9.38;;;7.90;67.20;;;;;;5035621;28;20021;-59
2022/04/14 03:04:50;;;;;;;15.95;9.93;;;7.90;67.80;;;;;;5035608;28;20530;-58
2022/04/14 03:07:16;;;;;;;17.15;10.30;;;7.90;68.30;;;;;;5035600;28;20484;-57
2022/04/14 03:09:42;;;;;;;13.23;8.73;;;7.90;67.20;;;;;;5035460;28;20036;-58
2022/04/14 03:12:08;;;;;;;15.02;8.73;;;7.70;69.20;;;;;;5035791;28;20026;-58
2022/04/14 03:14:34;;;;;;;14.18;8.30;;;7.80;67.60;;;;;;5035374;28;20528;-58
2022/04/14 03:17:00;;;;;;;11.98;7.68;;;7.80;67.90;;;;;;5035204;28;20132;-59
2022/04/14 03:19:26;;;;;;;10.68;7.45;;;7.80;68.60;;;;;;5035571;28;20041;-58
2022/04/14 03:21:51;;;;;;;12.77;8.05;;;7.80;66.80;;;;;;5035378;28;20391;-58
2022/04/14 03:24:17;;;;;;;12.55;7.97;;;7.80;66.40;;;;;;5035282;28;20533;-59
2022/04/14 03:26:43;;;;;;;14.13;8.07;;;7.80;67.10;;;;;;5035403;28;20025;-57
2022/04/14 03:29:08;;;;;;;10.77;6.88;;;7.80;66.30;;;;;;5035284;28;20028;-58
2022/04/14 03:31:34;;;;;;;11.63;6.90;;;7.80;67.80;;;;;;5035039;28;20048;-59
2022/04/14 03:34:00;;;;;;;12.18;7.50;;;7.70;67.60;;;;;;5034987;28;20052;-58
2022/04/14 03:36:25;;;;;;;16.48;8.77;;;7.70;67.80;;;;;;5035164;28;20021;-59
2022/04/14 03:38:51;;;;;;;12.23;7.95;;;7.60;67.70;;;;;;5035274;28;20057;-59
2022/04/14 03:41:17;;;;;;;13.60;7.97;;;7.50;68.40;;;;;;5034830;28;20030;-59
2022/04/14 03:43:42;;;;;;;13.98;7.75;;;7.60;70.10;;;;;;5034906;28;20480;-58
2022/04/14 03:46:08;;;;;;;15.85;9.07;;;7.60;69.90;;;;;;5034771;28;20023;-58
2022/04/14 03:48:34;;;;;;;10.88;7.25;;;7.50;69.70;;;;;;5034786;28;20093;-57
2022/04/14 03:51:00;;;;;;;13.25;7.43;;;7.40;71.50;;;;;;5034695;28;20108;-59
2022/04/14 03:53:26;;;;;;;10.63;6.70;;;7.40;71.40;;;;;;5034715;28;20025;-59
2022/04/14 03:55:52;;;;;;;13.07;7.65;;;7.40;71.50;;;;;;5034732;28;20026;-57
2022/04/14 03:58:18;;;;;;;11.82;7.18;;;7.40;69.90;;;;;;5034569;28;20487;-58
2022/04/14 04:00:44;;;;;;;12.38;7.30;;;7.40;70.70;;;;;;5034274;28;20017;-59
2022/04/14 04:03:11;;;;;;;14.85;8.07;;;7.40;71.10;;;;;;5034831;28;20025;-56
2022/04/14 04:05:37;;;;;;;11.32;7.30;;;7.40;72.00;;;;;;5034715;28;20026;-59
2022/04/14 04:08:04;;;;;;;11.05;7.10;;;7.40;72.00;;;;;;5034673;28;20067;-58
2022/04/14 04:10:30;;;;;;;8.38;6.25;;;7.40;72.50;;;;;;5034388;28;20021;-57
2022/04/14 04:12:55;;;;;;;19.33;11.43;;;7.40;73.00;;;;;;5034532;28;20380;-57
2022/04/14 04:15:21;;;;;;;14.10;8.23;;;7.40;71.10;;;;;;5034094;28;20049;-58
2022/04/14 04:17:47;;;;;;;21.40;12.00;;;7.30;71.50;;;;;;5034236;28;20029;-58
2022/04/14 04:20:13;;;;;;;16.58;10.02;;;7.30;71.60;;;;;;5034121;28;20565;-59
2022/04/14 04:22:40;;;;;;;19.08;12.10;;;7.30;71.90;;;;;;5034119;28;20163;-58
2022/04/14 04:25:06;;;;;;;27.77;16.08;;;7.30;70.50;;;;;;5034188;28;20037;-57
2022/04/14 04:27:32;;;;;;;24.60;14.70;;;7.30;70.00;;;;;;5034026;28;20115;-58
2022/04/14 04:29:58;;;;;;;29.10;15.68;;;7.30;71.20;;;;;;5033842;28;20100;-59
2022/04/14 04:32:24;;;;;;;24.60;13.73;;;7.30;70.30;;;;;;5034185;28;20490;-58
2022/04/14 04:34:49;;;;;;;31.67;18.95;;;7.30;71.10;;;;;;5034011;28;20014;-58
2022/04/14 04:37:15;;;;;;;34.10;19.40;;;7.30;71.10;;;;;;5033806;28;20388;-58
2022/04/14 04:39:41;;;;;;;29.05;17.25;;;7.20;72.40;;;;;;5034044;28;20546;-59
2022/04/14 04:42:07;;;;;;;25.90;15.40;;;7.20;73.90;;;;;;5034027;28;20026;-57
2022/04/14 04:44:33;;;;;;;29.77;17.85;;;7.20;74.90;;;;;;5033786;28;20026;-59
2022/04/14 04:46:58;;;;;;;52.30;27.42;;;7.40;74.50;;;;;;5033895;28;20392;-60
2022/04/14 04:49:24;;;;;;;38.97;22.08;;;7.30;75.00;;;;;;5033420;28;20021;-57
2022/04/14 04:51:50;;;;;;;35.08;18.85;;;7.30;75.80;;;;;;5033426;28;20093;-58
2022/04/14 04:54:15;;;;;;;40.05;21.85;;;7.20;76.80;;;;;;5032821;28;20053;-58
2022/04/14 04:56:41;;;;;;;41.50;24.23;;;7.30;78.10;;;;;;5033623;28;20025;-59
2022/04/14 04:59:08;;;;;;;34.15;21.02;;;7.00;80.50;;;;;;5033045;28;20030;-58
2022/04/14 05:01:33;;;;;;;35.03;21.27;;;6.90;82.60;;;;;;5033215;28;20111;-58
2022/04/14 05:03:59;;;;;;;32.10;19.67;;;6.80;84.70;;;;;;5033622;28;20155;-58
2022/04/14 05:06:25;;;;;;;34.58;19.95;;;6.80;84.90;;;;;;5033126;28;20400;-58
2022/04/14 05:08:50;;;;;;;31.52;19.70;;;6.80;86.90;;;;;;5032857;28;20108;-57
2022/04/14 05:11:16;;;;;;;35.80;20.33;;;6.70;87.60;;;;;;5032917;28;20029;-56
2022/04/14 05:13:42;;;;;;;35.03;20.95;;;6.70;89.20;;;;;;5032822;28;20036;-58
2022/04/14 05:16:09;;;;;;;34.20;20.40;;;6.80;86.80;;;;;;5032734;28;20052;-57
2022/04/14 05:18:34;;;;;;;29.98;17.88;;;7.00;86.70;;;;;;5033248;28;20376;-60
2022/04/14 05:21:00;;;;;;;35.35;18.23;;;7.20;85.20;;;;;;5033159;28;20033;-59
2022/04/14 05:23:26;;;;;;;28.30;17.75;;;7.30;84.70;;;;;;5033245;28;20555;-59
2022/04/14 05:25:52;;;;;;;39.38;24.35;;;7.40;83.90;;;;;;5032524;28;20032;-56
2022/04/14 05:28:18;;;;;;;32.15;21.58;;;7.50;82.40;;;;;;5032982;28;20026;-59
2022/04/14 05:30:43;;;;;;;30.05;19.02;;;7.50;81.90;;;;;;5033048;28;20033;-59
2022/04/14 05:33:10;;;;;;;27.67;17.00;;;7.70;82.20;;;;;;5033272;28;20071;-59
2022/04/14 05:35:40;;;;;;;33.60;20.58;;;7.90;79.10;;;;;;5031994;28;20030;-58
2022/04/14 05:38:06;;;;;;;42.50;24.52;;;8.10;76.80;;;;;;5032735;28;20021;-57
2022/04/14 05:40:32;;;;;;;52.65;27.30;;;8.00;76.80;;;;;;5033119;28;20117;-60
2022/04/14 05:42:58;;;;;;;41.63;24.80;;;7.90;78.30;;;;;;5031986;28;20592;-59
2022/04/14 05:45:24;;;;;;;33.15;21.30;;;7.80;79.20;;;;;;5032905;28;20384;-59
2022/04/14 05:47:49;;;;;;;28.33;18.05;;;8.00;80.70;;;;;;5031259;28;20020;-57
2022/04/14 05:50:15;;;;;;;25.48;16.08;;;8.30;75.60;;;;;;5029439;28;20361;-59
2022/04/14 05:52:42;;;;;;;23.08;14.70;;;8.50;73.30;;;;;;5031116;28;20026;-59
2022/04/14 05:55:08;;;;;;;21.73;13.75;;;8.80;73.00;;;;;;5031568;28;20025;-58
2022/04/14 05:57:34;;;;;;;36.03;21.48;;;9.00;71.70;;;;;;5031692;28;20030;-58
2022/04/14 06:00:00;;;;;;;41.08;25.27;;;9.20;71.00;;;;;;5032475;28;20040;-59
2022/04/14 06:02:26;;;;;;;41.90;24.90;;;9.20;69.70;;;;;;5032365;28;20021;-59
2022/04/14 06:04:52;;;;;;;30.85;20.00;;;9.10;71.70;;;;;;5027036;28;20207;-59
2022/04/14 06:07:19;;;;;;;27.05;17.67;;;9.30;71.20;;;;;;5047601;28;20035;-59
2022/04/14 06:09:44;;;;;;;21.70;15.27;;;9.50;69.80;;;;;;5055068;28;20144;-59
2022/04/14 06:12:10;;;;;;;35.33;19.10;;;9.90;70.60;;;;;;5054045;28;20119;-59
2022/04/14 06:14:36;;;;;;;49.53;26.50;;;10.50;68.20;;;;;;5055543;28;20025;-58
2022/04/14 06:17:02;;;;;;;32.75;19.85;;;11.70;63.20;;;;;;5055247;28;20128;-60
2022/04/14 06:19:28;;;;;;;33.58;20.55;;;12.80;58.50;;;;;;5055977;28;20109;-59
2022/04/14 06:21:54;;;;;;;35.90;20.83;;;14.20;55.50;;;;;;5055874;28;20108;-60
2022/04/14 06:24:19;;;;;;;33.72;21.13;;;15.40;51.20;;;;;;5054459;28;20028;-59
2022/04/14 06:26:45;;;;;;;36.33;20.80;;;15.60;49.90;;;;;;5049899;28;20424;-57
2022/04/14 06:29:11;;;;;;;30.10;17.92;;;16.70;48.90;;;;;;5050426;28;20036;-60
2022/04/14 06:31:37;;;;;;;24.52;16.10;;;16.70;46.60;;;;;;5051770;28;20055;-59
2022/04/14 06:34:05;;;;;;;22.08;14.82;;;16.40;45.50;;;;;;5055879;28;20036;-59
2022/04/14 06:36:32;;;;;;;21.73;15.27;;;15.90;46.80;;;;;;5055050;28;20029;-58
2022/04/14 06:38:57;;;;;;;22.73;14.75;;;16.00;46.60;;;;;;5055714;28;20051;-60
2022/04/14 06:41:25;;;;;;;22.10;14.85;;;16.10;45.90;;;;;;5055438;28;20471;-60
2022/04/14 06:43:51;;;;;;;24.00;16.10;;;17.20;45.30;;;;;;5054983;28;20033;-60
2022/04/14 06:46:17;;;;;;;25.80;16.00;;;18.90;43.60;;;;;;5055235;28;20506;-59
2022/04/14 06:48:43;;;;;;;21.30;14.88;;;19.90;40.20;;;;;;5054186;28;20021;-60
2022/04/14 06:51:09;;;;;;;21.58;15.32;;;19.70;40.60;;;;;;5055022;28;20032;-59
2022/04/14 06:53:35;;;;;;;20.48;14.57;;;20.70;40.20;;;;;;5054873;28;20446;-59
2022/04/14 06:56:01;;;;;;;20.25;15.13;;;21.90;37.40;;;;;;5055302;28;20107;-58
2022/04/14 06:58:28;;;;;;;22.45;15.70;;;22.90;36.20;;;;;;5054748;28;20098;-60
2022/04/14 07:00:54;;;;;;;20.65;14.32;;;24.60;35.60;;;;;;5054368;28;20044;-59
2022/04/14 07:03:26;;;;;;;16.58;12.88;;;26.00;33.00;;;;;;5052724;28;20029;-60
2022/04/14 07:05:54;;;;;;;15.38;10.82;;;27.00;31.60;;;;;;5053865;28;20071;-59
2022/04/14 07:08:21;;;;;;;14.52;9.93;;;26.60;31.30;;;;;;5054134;28;20021;-60
2022/04/14 07:10:47;;;;;;;13.93;9.75;;;26.00;30.80;;;;;;5050229;28;20052;-60
2022/04/14 07:13:13;;;;;;;15.23;10.45;;;25.20;31.20;;;;;;5052265;28;20044;-59
2022/04/14 07:15:38;;;;;;;12.38;10.07;;;24.70;31.00;;;;;;5052449;28;20045;-59
2022/04/14 07:18:04;;;;;;;13.27;10.05;;;24.00;31.80;;;;;;5052402;28;20029;-59
2022/04/14 07:20:30;;;;;;;19.27;12.07;;;23.30;31.50;;;;;;5052367;28;20024;-59
2022/04/14 07:22:58;;;;;;;13.02;10.65;;;22.90;32.20;;;;;;5051129;28;20056;-60
2022/04/14 07:25:24;;;;;;;14.95;11.57;;;22.60;32.50;;;;;;5051365;28;20529;-60
2022/04/14 07:27:50;;;;;;;14.93;11.98;;;22.20;33.00;;;;;;5051877;28;20499;-59
2022/04/14 07:30:16;;;;;;;17.50;12.07;;;22.30;32.80;;;;;;5053305;28;20018;-59
2022/04/14 07:32:44;;;;;;;15.80;11.40;;;22.70;33.30;;;;;;5051093;28;20025;-59
2022/04/14 07:35:12;;;;;;;17.95;13.00;;;23.00;32.30;;;;;;5051484;28;20411;-59
2022/04/14 07:37:38;;;;;;;15.38;11.63;;;22.80;33.30;;;;;;5051723;28;20028;-59
2022/04/14 07:40:08;;;;;;;13.55;10.63;;;22.50;34.70;;;;;;5051867;28;20017;-60
2022/04/14 07:42:38;;;;;;;15.82;10.95;;;22.00;33.40;;;;;;5051317;28;20032;-60
2022/04/14 07:45:06;;;;;;;14.18;10.82;;;21.80;34.40;;;;;;5051941;28;20025;-59
2022/04/14 07:47:33;;;;;;;13.48;10.50;;;21.90;34.10;;;;;;5052396;28;20024;-60
2022/04/14 07:49:59;;;;;;;14.65;11.40;;;21.90;35.50;;;;;;5042195;28;20025;-59
2022/04/14 07:52:24;;;;;;;16.80;12.18;;;22.20;34.60;;;;;;5028591;28;20023;-60
2022/04/14 07:54:50;;;;;;;17.17;12.32;;;22.90;35.20;;;;;;5029325;28;20044;-59
2022/04/14 07:57:16;;;;;;;15.63;12.30;;;23.70;33.20;;;;;;5032186;28;20148;-59
2022/04/14 07:59:42;;;;;;;23.10;14.88;;;24.60;33.80;;;;;;5043210;28;20029;-59
2022/04/14 08:02:07;;;;;;;24.27;17.17;;;24.60;32.00;;;;;;5041855;28;20376;-60
2022/04/14 08:04:34;;;;;;;18.85;15.13;;;24.00;32.40;;;;;;5045590;28;20664;-60
2022/04/14 08:07:00;;;;;;;21.77;13.73;;;23.90;33.50;;;;;;5042667;28;20087;-59
2022/04/14 08:09:26;;;;;;;20.35;12.95;;;24.00;34.70;;;;;;5034830;28;20159;-58
2022/04/14 08:11:52;;;;;;;14.73;11.90;;;23.90;33.70;;;;;;5033486;28;20036;-60
2022/04/14 08:14:18;;;;;;;23.02;14.85;;;24.10;33.00;;;;;;5037718;28;20025;-60
2022/04/14 08:16:43;;;;;;;19.10;15.05;;;24.30;32.20;;;;;;5038918;28;20053;-60
2022/04/14 08:19:09;;;;;;;16.50;13.20;;;24.20;32.70;;;;;;5036059;28;20492;-60
2022/04/14 08:21:41;;;;;;;20.23;14.68;;;23.70;32.40;;;;;;5047107;28;20052;-59
2022/04/14 08:24:08;;;;;;;18.80;13.77;;;23.00;33.40;;;;;;5033153;28;20061;-60
2022/04/14 08:26:34;;;;;;;18.42;15.07;;;22.80;33.90;;;;;;5037331;28;20026;-58
2022/04/14 08:29:00;;;;;;;19.65;14.00;;;22.70;36.10;;;;;;5037008;28;20043;-59
2022/04/14 08:31:26;;;;;;;19.92;15.27;;;23.50;34.00;;;;;;5038246;28;20100;-60
2022/04/14 08:33:52;;;;;;;19.63;13.70;;;25.10;32.40;;;;;;5038765;28;20542;-59
2022/04/14 08:36:19;;;;;;;31.95;19.75;;;26.70;31.80;;;;;;5038706;28;20028;-59
2022/04/14 08:38:46;;;;;;;18.50;15.55;;;27.40;30.50;;;;;;5039776;28;20117;-59
2022/04/14 08:41:14;;;;;;;18.75;13.98;;;26.90;30.50;;;;;;5040470;28;20029;-59
2022/04/14 08:44:01;;;;;;;18.10;12.57;;;26.40;31.00;;;;;;5037115;28;20029;-60
2022/04/14 08:46:28;;;;;;;16.52;11.27;;;26.80;32.10;;;;;;5031698;28;20056;-59
2022/04/14 08:48:57;;;;;;;15.65;10.43;;;26.90;32.00;;;;;;5029411;28;20064;-60
2022/04/14 08:51:26;;;;;;;16.20;11.40;;;27.10;31.80;;;;;;5028806;28;20114;-60
2022/04/14 08:53:52;;;;;;;19.35;10.27;;;27.00;32.00;;;;;;5027992;28;20033;-59
2022/04/14 08:56:19;;;;;;;17.40;10.60;;;26.50;32.60;;;;;;5029645;28;20121;-60
2022/04/14 08:58:47;;;;;;;14.63;10.35;;;26.20;34.20;;;;;;5030618;28;20026;-60
2022/04/14 09:01:14;;;;;;;13.38;10.35;;;26.30;32.90;;;;;;5031645;28;20033;-59
2022/04/14 09:03:41;;;;;;;15.75;10.32;;;26.20;34.10;;;;;;5030155;28;20365;-60
2022/04/14 09:06:07;;;;;;;13.00;9.45;;;26.40;34.00;;;;;;5035730;28;20033;-60
2022/04/14 09:08:33;;;;;;;14.48;9.85;;;26.20;33.50;;;;;;5031695;28;20737;-61
2022/04/14 09:10:59;;;;;;;12.95;10.85;;;26.10;33.10;;;;;;5029258;28;20021;-61
2022/04/14 09:13:26;;;;;;;11.63;10.30;;;26.10;34.20;;;;;;5030542;28;20018;-60
2022/04/14 09:15:52;;;;;;;16.27;11.20;;;26.40;33.10;;;;;;5030065;28;20041;-60
2022/04/14 09:18:18;;;;;;;14.68;10.90;;;26.60;33.30;;;;;;5029565;28;20369;-60
2022/04/14 09:20:48;;;;;;;14.38;10.23;;;27.20;32.30;;;;;;5030381;28;20037;-59
2022/04/14 09:23:28;;;;;;;12.38;9.80;;;27.80;31.70;;;;;;5049293;28;20033;-60
2022/04/14 09:26:11;;;;;;;10.23;8.80;;;27.90;31.30;;;;;;5044616;28;20096;-59
2022/04/14 09:28:38;;;;;;;13.32;9.20;;;28.00;30.60;;;;;;5043804;28;20435;-60
2022/04/14 09:31:11;;;;;;;15.15;10.43;;;28.10;32.30;;;;;;5039264;28;20128;-61
2022/04/14 09:33:48;;;;;;;17.00;10.00;;;27.90;30.50;;;;;;5040031;28;20036;-60
2022/04/14 09:36:20;;;;;;;12.93;9.77;;;27.80;30.90;;;;;;5043491;28;20039;-61
2022/04/14 09:38:50;;;;;;;10.10;8.88;;;27.90;30.80;;;;;;5043873;28;20443;-60
2022/04/14 09:41:38;;;;;;;11.38;9.77;;;28.00;31.30;;;;;;5042461;28;20067;-58
2022/04/14 09:44:08;;;;;;;11.70;8.10;;;28.10;31.80;;;;;;5048643;28;20441;-58
2022/04/14 09:46:35;;;;;;;12.27;8.90;;;27.90;33.40;;;;;;5041876;28;20056;-60
2022/04/14 09:49:10;;;;;;;9.27;7.85;;;27.70;32.30;;;;;;5035940;28;20075;-59
2022/04/14 09:51:38;;;;;;;11.48;7.82;;;27.50;31.80;;;;;;5033815;28;20033;-60
2022/04/14 09:54:06;;;;;;;12.30;7.88;;;27.40;32.00;;;;;;5035114;28;20109;-60
2022/04/14 09:56:52;;;;;;;12.82;7.80;;;27.10;32.80;;;;;;5035361;28;20025;-60
2022/04/14 09:59:19;;;;;;;11.15;7.63;;;27.40;31.80;;;;;;5044160;28;20014;-60
2022/04/14 10:01:46;;;;;;;11.70;7.43;;;27.50;31.60;;;;;;5051997;28;20442;-60
2022/04/14 10:04:40;;;;;;;8.70;7.10;;;27.80;33.10;;;;;;5050965;28;20040;-60
2022/04/14 10:07:11;;;;;;;10.30;7.65;;;28.10;33.70;;;;;;5039129;28;20038;-59
2022/04/14 10:09:39;;;;;;;10.25;7.18;;;28.00;31.80;;;;;;5033991;28;20491;-60
2022/04/14 10:12:25;;;;;;;13.45;7.25;;;28.20;31.70;;;;;;5033029;28;20517;-60
2022/04/14 10:14:57;;;;;;;9.70;6.93;;;28.40;31.20;;;;;;5041421;28;20407;-60
2022/04/14 10:17:24;;;;;;;7.30;6.53;;;28.60;31.30;;;;;;5042837;28;20385;-60
2022/04/14 10:19:51;;;;;;;7.35;6.30;;;28.70;30.00;;;;;;5035065;28;20072;-59
2022/04/14 10:22:18;;;;;;;10.63;6.20;;;28.80;32.30;;;;;;5035623;28;20454;-60
2022/04/14 10:24:45;;;;;;;10.07;6.18;;;28.70;33.20;;;;;;5034416;28;20472;-60
2022/04/14 10:27:13;;;;;;;8.27;6.70;;;28.70;30.70;;;;;;5036498;28;20064;-60
2022/04/14 10:29:41;;;;;;;9.32;6.85;;;28.20;31.50;;;;;;5033783;28;20484;-60
2022/04/14 10:32:07;;;;;;;7.95;6.95;;;28.40;30.50;;;;;;5047691;28;20166;-60
2022/04/14 10:34:34;;;;;;;8.27;6.65;;;28.90;30.00;;;;;;5054299;28;20036;-59
2022/04/14 10:37:02;;;;;;;8.75;6.18;;;29.30;29.30;;;;;;5053676;28;20438;-60
2022/04/14 10:39:31;;;;;;;8.65;6.57;;;29.40;31.20;;;;;;5035570;28;20026;-60
2022/04/14 10:41:59;;;;;;;7.50;6.10;;;29.20;29.40;;;;;;5041489;28;20041;-60
2022/04/14 10:44:44;;;;;;;8.02;6.18;;;29.30;29.70;;;;;;5052812;28;20021;-60
2022/04/14 10:47:10;;;;;;;8.32;6.63;;;29.60;28.80;;;;;;5031449;28;20021;-60
2022/04/14 10:49:39;;;;;;;7.43;6.18;;;29.10;28.60;;;;;;5033162;28;20507;-60
2022/04/14 10:52:32;;;;;;;7.40;6.03;;;29.70;29.00;;;;;;5039628;28;20017;-60
2022/04/14 10:55:02;;;;;;;7.57;5.87;;;30.20;29.60;;;;;;5039885;28;20090;-60
2022/04/14 10:57:41;;;;;;;7.78;5.65;;;30.30;28.60;;;;;;5042045;28;20059;-60
2022/04/14 11:00:19;;;;;;;7.38;6.03;;;30.30;28.40;;;;;;5042855;28;20060;-59
2022/04/14 11:03:13;;;;;;;5.97;5.38;;;30.50;27.40;;;;;;5039139;28;20071;-60
2022/04/14 11:05:43;;;;;;;6.47;5.20;;;30.80;28.20;;;;;;5040472;28;20047;-61
2022/04/14 11:08:25;;;;;;;6.05;5.18;;;30.70;27.70;;;;;;5041599;28;20094;-60
2022/04/14 11:11:11;;;;;;;8.77;5.45;;;30.90;27.90;;;;;;5042907;28;20023;-60
2022/04/14 11:13:55;;;;;;;6.10;5.15;;;30.60;26.60;;;;;;5047597;28;20526;-61
2022/04/14 11:16:49;;;;;;;5.68;4.78;;;29.70;28.80;;;;;;5049886;28;20403;-60
2022/04/14 11:19:24;;;;;;;5.45;4.70;;;29.60;30.20;;;;;;5050758;28;20036;-60
2022/04/14 11:22:02;;;;;;;8.35;4.60;;;29.70;30.20;;;;;;5051380;28;20036;-60
2022/04/14 11:24:37;;;;;;;6.15;5.03;;;29.60;27.10;;;;;;5050918;28;20027;-59
2022/04/14 11:27:09;;;;;;;5.15;4.75;;;29.60;27.10;;;;;;5052155;28;20096;-59
2022/04/14 11:29:35;;;;;;;7.53;5.25;;;29.80;27.70;;;;;;5045940;28;20024;-60
2022/04/14 11:32:01;;;;;;;6.82;5.10;;;29.70;27.70;;;;;;5035755;28;20029;-60
2022/04/14 11:34:33;;;;;;;6.22;5.60;;;29.40;28.10;;;;;;5035759;28;20114;-60
2022/04/14 11:37:01;;;;;;;12.63;5.65;;;29.50;27.10;;;;;;5032849;28;20079;-59
2022/04/14 11:39:27;;;;;;;6.30;5.20;;;29.70;26.60;;;;;;5030034;28;20119;-60
2022/04/14 11:42:14;;;;;;;6.72;5.22;;;29.40;27.40;;;;;;5033350;28;20482;-60
2022/04/14 11:44:39;;;;;;;6.40;4.93;;;28.80;27.40;;;;;;5044221;28;20029;-58
2022/04/14 11:47:05;;;;;;;6.97;5.18;;;29.00;26.60;;;;;;5037635;28;20013;-61
2022/04/14 11:49:33;;;;;;;8.43;6.70;;;29.40;27.30;;;;;;5037695;28;20136;-60
2022/04/14 11:52:01;;;;;;;8.25;6.30;;;29.30;26.80;;;;;;5037573;28;20078;-60
2022/04/14 11:54:27;;;;;;;6.72;5.10;;;29.40;26.70;;;;;;5038262;28;20026;-60
2022/04/14 11:56:54;;;;;;;6.25;4.80;;;29.60;27.10;;;;;;5041042;28;20036;-60
2022/04/14 11:59:32;;;;;;;5.03;4.53;;;29.80;28.60;;;;;;5043590;28;20120;-61
2022/04/14 12:02:04;;;;;;;4.95;3.90;;;30.10;29.20;;;;;;5040444;28;20175;-61
2022/04/14 12:04:40;;;;;;;4.53;3.90;;;30.00;28.70;;;;;;5039000;28;20555;-61
2022/04/14 12:07:07;;;;;;;5.68;3.78;;;29.90;27.70;;;;;;5032562;28;20112;-59
2022/04/14 12:09:33;;;;;;;4.50;3.72;;;29.90;26.20;;;;;;5040951;28;20025;-59
2022/04/14 12:12:12;;;;;;;3.80;3.40;;;29.60;26.60;;;;;;5040299;28;20096;-59
2022/04/14 12:14:46;;;;;;;3.70;3.20;;;29.90;27.50;;;;;;5036395;28;20041;-58
2022/04/14 12:17:13;;;;;;;3.67;3.20;;;30.50;26.00;;;;;;5032193;28;20052;-60
2022/04/14 12:19:41;;;;;;;3.10;2.80;;;30.90;26.20;;;;;;5037222;28;20128;-60
2022/04/14 12:22:07;;;;;;;5.05;3.40;;;31.50;25.40;;;;;;5037985;28;20029;-60
2022/04/14 12:24:34;;;;;;;5.05;3.20;;;31.80;25.80;;;;;;5039900;28;20042;-60
2022/04/14 12:27:00;;;;;;;3.72;3.42;;;31.20;25.80;;;;;;5038297;28;20037;-61
2022/04/14 12:29:27;;;;;;;4.22;3.42;;;30.80;26.30;;;;;;5037162;28;20063;-60
2022/04/14 12:31:58;;;;;;;3.72;3.00;;;30.80;24.80;;;;;;5037485;28;20033;-59
2022/04/14 12:34:24;;;;;;;4.47;3.17;;;30.60;26.30;;;;;;5035580;28;20029;-60
2022/04/14 12:36:49;;;;;;;3.40;3.10;;;30.60;26.30;;;;;;5034954;28;20448;-60
2022/04/14 12:39:22;;;;;;;4.38;2.80;;;30.80;25.80;;;;;;5038055;28;20021;-60